Time;durP1;ratioP1;P1;durP2;ratioP2;P2;SDS_P1;SDS_P2;PMS_P1;PMS_P2;Temp;Humidity;BMP_temperature;BMP_pressure;BME280_temperature;BME280_humidity;BME280_pressure;Samples;Min_cycle;Max_cycle;Signal;HPM_P1;HPM_P2
2022/07/03 00:00:22;;;;;;;8.82;3.38;;;;;;;;;;5019658;28;20387;-79
2022/07/03 00:02:47;;;;;;;4.07;3.00;;;;;;;;;;5018914;28;20064;-81
2022/07/03 00:05:12;;;;;;;6.80;3.60;;;;;;;;;;5016646;28;20022;-81
2022/07/03 00:07:38;;;;;;;4.50;3.77;;;;;;;;;;5018591;28;20026;-79
2022/07/03 00:10:04;;;;;;;4.80;3.30;;;;;;;;;;5001096;28;20621;-81
2022/07/03 00:12:30;;;;;;;4.63;3.20;;;;;;;;;;5020355;28;20030;-81
2022/07/03 00:14:55;;;;;;;5.95;3.45;;;;;;;;;;5022058;28;20022;-82
2022/07/03 00:17:21;;;;;;;8.63;3.63;;;;;;;;;;5020592;28;20052;-80
2022/07/03 00:19:46;;;;;;;3.90;3.10;;;;;;;;;;5021365;28;20029;-81
2022/07/03 00:22:13;;;;;;;4.67;3.33;;;;;;;;;;5020833;28;20305;-82
2022/07/03 00:24:49;;;;;;;6.47;3.45;;;;;;;;;;5021129;28;20275;-82
2022/07/03 00:27:17;;;;;;;5.30;3.60;;;;;;;;;;5021402;28;20022;-81
2022/07/03 00:29:44;;;;;;;7.30;3.50;;;;;;;;;;5019693;28;20033;-82
2022/07/03 00:32:17;;;;;;;4.93;3.47;;;;;;;;;;5020169;28;20032;-81
2022/07/03 00:34:42;;;;;;;4.80;3.40;;;;;;;;;;5020362;28;20022;-82
2022/07/03 00:37:09;;;;;;;4.80;3.40;;;;;;;;;;5020400;28;20033;-82
2022/07/03 00:39:37;;;;;;;5.72;3.40;;;;;;;;;;5019350;28;20387;-81
2022/07/03 00:42:04;;;;;;;3.63;3.20;;;;;;;;;;5020008;28;20021;-79
2022/07/03 00:44:32;;;;;;;6.63;3.30;;;;;;;;;;5020101;28;20030;-82
2022/07/03 00:46:58;;;;;;;5.22;3.53;;;;;;;;;;5020426;28;20065;-82
2022/07/03 00:49:24;;;;;;;4.43;3.03;;;;;;;;;;5018643;28;20018;-81
2022/07/03 00:51:52;;;;;;;5.68;3.30;;;;;;;;;;5018346;28;20069;-82
2022/07/03 00:54:21;;;;;;;13.07;3.38;;;;;;;;;;5018896;28;20018;-81
2022/07/03 00:56:50;;;;;;;7.65;3.40;;;;;;;;;;5019078;28;20057;-81
2022/07/03 00:59:15;;;;;;;6.55;3.20;;;;;;;;;;5020128;28;20052;-82
2022/07/03 01:01:41;;;;;;;3.63;3.22;;;;;;;;;;5019904;28;20022;-79
2022/07/03 01:04:33;;;;;;;4.65;2.95;;;;;;;;;;5020550;28;20412;-81
2022/07/03 01:07:18;;;;;;;4.40;3.20;;;;;;;;;;5021070;28;20022;-83
2022/07/03 01:10:09;;;;;;;7.00;3.13;;;;;;;;;;5021481;28;20029;-83
2022/07/03 01:12:56;;;;;;;5.90;3.20;;;;;;;;;;5019752;28;20030;-82
2022/07/03 01:15:35;;;;;;;3.70;2.78;;;;;;;;;;5021214;28;20072;-81
2022/07/03 01:18:33;;;;;;;4.20;3.10;;;;;;;;;;5021106;28;20026;-83
2022/07/03 01:21:09;;;;;;;8.82;3.50;;;;;;;;;;5019875;28;20549;-81
2022/07/03 01:23:56;;;;;;;6.78;3.25;;;;;;;;;;5019145;28;20079;-81
2022/07/03 01:26:24;;;;;;;4.18;3.10;;;;;;;;;;5018036;28;20057;-82
2022/07/03 01:28:49;;;;;;;3.70;3.20;;;;;;;;;;5018690;28;20064;-82
2022/07/03 01:31:18;;;;;;;5.75;3.28;;;;;;;;;;5019888;28;20057;-82
2022/07/03 01:33:46;;;;;;;4.38;3.08;;;;;;;;;;5018312;28;20045;-81
2022/07/03 01:36:15;;;;;;;5.60;3.30;;;;;;;;;;5018022;28;20036;-82
2022/07/03 01:38:40;;;;;;;6.82;3.33;;;;;;;;;;5018963;28;20018;-81
2022/07/03 01:41:08;;;;;;;3.90;2.97;;;;;;;;;;5017882;28;20025;-82
2022/07/03 01:43:39;;;;;;;5.05;3.33;;;;;;;;;;5019370;28;20041;-81
2022/07/03 01:46:04;;;;;;;5.68;3.38;;;;;;;;;;5019827;28;20038;-82
2022/07/03 01:48:32;;;;;;;9.55;3.53;;;;;;;;;;5019018;28;20503;-83
2022/07/03 01:50:58;;;;;;;4.28;3.33;;;;;;;;;;5019762;28;20026;-80
2022/07/03 01:53:28;;;;;;;7.95;3.53;;;;;;;;;;5019472;28;20026;-84
2022/07/03 01:55:59;;;;;;;5.30;3.42;;;;;;;;;;5019996;28;20041;-82
2022/07/03 01:58:25;;;;;;;5.38;3.50;;;;;;;;;;5018163;28;20040;-82
2022/07/03 02:01:20;;;;;;;4.53;3.58;;;;;;;;;;5019284;28;20045;-83
2022/07/03 02:04:01;;;;;;;5.07;3.47;;;;;;;;;;5011231;28;20050;-82
2022/07/03 02:06:42;;;;;;;4.22;3.42;;;;;;;;;;5018677;28;20069;-81
2022/07/03 02:09:10;;;;;;;7.43;3.60;;;;;;;;;;5018394;28;20029;-80
2022/07/03 02:11:38;;;;;;;4.40;3.45;;;;;;;;;;5018308;28;20033;-82
2022/07/03 02:14:38;;;;;;;5.03;3.63;;;;;;;;;;5018855;28;20021;-82
2022/07/03 02:17:15;;;;;;;4.40;3.40;;;;;;;;;;5015619;28;20042;-81
2022/07/03 02:19:57;;;;;;;7.97;3.50;;;;;;;;;;5018958;28;20033;-81
2022/07/03 02:22:27;;;;;;;8.05;3.55;;;;;;;;;;5017121;28;20021;-81
2022/07/03 02:25:02;;;;;;;5.43;3.60;;;;;;;;;;5016749;28;20479;-81
2022/07/03 02:27:38;;;;;;;6.55;3.50;;;;;;;;;;5017390;28;20026;-81
2022/07/03 02:30:06;;;;;;;5.78;3.40;;;;;;;;;;5019049;28;20467;-81
2022/07/03 02:32:52;;;;;;;4.72;3.40;;;;;;;;;;5018681;28;20026;-80
2022/07/03 02:35:32;;;;;;;3.40;3.10;;;;;;;;;;5018207;28;20557;-82
2022/07/03 02:38:12;;;;;;;6.60;3.40;;;;;;;;;;5018173;28;20041;-81
2022/07/03 02:40:40;;;;;;;6.00;3.22;;;;;;;;;;5017195;28;20050;-82
2022/07/03 02:43:23;;;;;;;4.05;3.28;;;;;;;;;;5017087;28;20026;-81
2022/07/03 02:45:56;;;;;;;3.93;3.43;;;;;;;;;;5017316;28;20052;-80
2022/07/03 02:48:39;;;;;;;5.53;3.25;;;;;;;;;;5018214;28;20736;-82
2022/07/03 02:51:13;;;;;;;5.30;3.40;;;;;;;;;;5016947;28;20026;-81
2022/07/03 02:53:44;;;;;;;6.88;3.20;;;;;;;;;;5017416;28;20030;-82
2022/07/03 02:56:27;;;;;;;6.72;3.80;;;;;;;;;;5017883;28;20514;-81
2022/07/03 02:58:59;;;;;;;4.47;3.28;;;;;;;;;;5017371;28;20030;-80
2022/07/03 03:01:24;;;;;;;8.48;3.92;;;;;;;;;;5018946;28;20028;-82
2022/07/03 03:04:08;;;;;;;5.07;3.70;;;;;;;;;;5027102;28;20034;-82
2022/07/03 03:06:36;;;;;;;3.92;3.33;;;;;;;;;;5024048;28;20005;-80
2022/07/03 03:09:04;;;;;;;6.88;3.28;;;;;;;;;;5041911;28;20041;-83
2022/07/03 03:11:35;;;;;;;4.85;3.50;;;;;;;;;;5041778;28;20025;-82
2022/07/03 03:14:05;;;;;;;6.10;3.60;;;;;;;;;;5041748;28;20064;-81
2022/07/03 03:16:30;;;;;;;6.30;3.42;;;;;;;;;;5041173;28;20057;-81
2022/07/03 03:18:56;;;;;;;5.03;3.60;;;;;;;;;;5041266;28;20038;-81
2022/07/03 03:21:25;;;;;;;4.55;3.47;;;;;;;;;;5040966;28;20274;-82
2022/07/03 03:23:54;;;;;;;9.35;3.28;;;;;;;;;;5041220;28;20021;-81
2022/07/03 03:26:22;;;;;;;4.32;3.30;;;;;;;;;;5037986;28;20174;-80
2022/07/03 03:28:49;;;;;;;5.53;3.70;;;;;;;;;;5021542;28;20113;-82
2022/07/03 03:31:15;;;;;;;7.90;3.60;;;;;;;;;;5020792;28;20535;-80
2022/07/03 03:33:42;;;;;;;4.80;3.58;;;;;;;;;;5019697;28;20036;-82
2022/07/03 03:36:10;;;;;;;4.65;3.42;;;;;;;;;;5018625;28;20026;-81
2022/07/03 03:38:36;;;;;;;4.35;3.40;;;;;;;;;;5019870;28;20048;-79
2022/07/03 03:41:02;;;;;;;4.45;3.22;;;;;;;;;;5017994;28;20502;-77
2022/07/03 03:43:28;;;;;;;6.05;3.20;;;;;;;;;;5017984;28;20050;-77
2022/07/03 03:45:53;;;;;;;5.40;3.55;;;;;;;;;;5017752;28;20033;-76
2022/07/03 03:48:19;;;;;;;4.40;3.43;;;;;;;;;;5016377;28;20025;-77
2022/07/03 03:50:44;;;;;;;3.80;3.22;;;;;;;;;;5016370;28;20346;-77
2022/07/03 03:53:10;;;;;;;5.90;3.35;;;;;;;;;;5016393;28;20029;-77
2022/07/03 03:55:35;;;;;;;7.32;3.50;;;;;;;;;;5016827;28;20506;-77
2022/07/03 03:58:01;;;;;;;5.85;3.50;;;;;;;;;;5014861;28;20037;-78
2022/07/03 04:00:27;;;;;;;6.28;3.47;;;;;;;;;;5016607;28;20395;-75
2022/07/03 04:02:52;;;;;;;5.25;3.10;;;;;;;;;;5016321;28;20025;-77
2022/07/03 04:05:17;;;;;;;3.75;3.15;;;;;;;;;;5016140;28;20041;-76
2022/07/03 04:07:43;;;;;;;4.25;3.00;;;;;;;;;;5015015;28;20391;-76
2022/07/03 04:10:08;;;;;;;5.47;3.43;;;;;;;;;;5016228;28;20026;-76
2022/07/03 04:12:33;;;;;;;3.55;3.03;;;;;;;;;;5016340;28;20261;-77
2022/07/03 04:14:59;;;;;;;3.90;2.90;;;;;;;;;;5015408;28;20025;-78
2022/07/03 04:17:24;;;;;;;3.75;2.88;;;;;;;;;;5014959;28;20398;-76
2022/07/03 04:19:49;;;;;;;3.63;2.97;;;;;;;;;;5016295;28;20029;-76
2022/07/03 04:22:15;;;;;;;4.75;3.00;;;;;;;;;;5016441;28;20038;-76
2022/07/03 04:24:40;;;;;;;3.95;3.13;;;;;;;;;;5016393;28;20394;-77
2022/07/03 04:27:05;;;;;;;5.05;2.90;;;;;;;;;;5016436;28;20040;-76
2022/07/03 04:29:30;;;;;;;4.97;3.10;;;;;;;;;;5018778;28;20498;-79
2022/07/03 04:31:56;;;;;;;5.38;2.65;;;;;;;;;;5018619;28;20061;-81
2022/07/03 04:34:21;;;;;;;6.30;2.80;;;;;;;;;;5018884;28;20041;-82
2022/07/03 04:36:46;;;;;;;3.50;2.70;;;;;;;;;;5019030;28;20273;-81
2022/07/03 04:39:12;;;;;;;5.93;2.55;;;;;;;;;;5019735;28;20291;-81
2022/07/03 04:41:37;;;;;;;3.80;2.80;;;;;;;;;;5017997;28;20491;-80
2022/07/03 04:44:03;;;;;;;5.00;2.60;;;;;;;;;;5019434;28;20286;-81
2022/07/03 04:46:28;;;;;;;4.90;2.58;;;;;;;;;;5018534;28;20021;-79
2022/07/03 04:48:53;;;;;;;3.20;2.58;;;;;;;;;;5020917;28;20032;-81
2022/07/03 04:51:18;;;;;;;8.80;2.67;;;;;;;;;;5023286;28;20430;-78
2022/07/03 04:53:44;;;;;;;3.27;2.40;;;;;;;;;;5020661;28;20022;-78
2022/07/03 04:56:09;;;;;;;3.47;2.40;;;;;;;;;;5021629;28;20346;-79
2022/07/03 04:58:34;;;;;;;3.75;2.20;;;;;;;;;;5022529;28;20260;-80
2022/07/03 05:01:00;;;;;;;2.70;2.20;;;;;;;;;;5018188;28;20018;-79
2022/07/03 05:03:25;;;;;;;3.67;2.43;;;;;;;;;;5015980;28;20034;-80
2022/07/03 05:05:52;;;;;;;5.20;2.40;;;;;;;;;;5015196;28;20279;-79
2022/07/03 05:08:19;;;;;;;2.70;2.30;;;;;;;;;;5014344;28;20056;-79
2022/07/03 05:10:44;;;;;;;2.95;2.30;;;;;;;;;;5015559;28;20411;-79
2022/07/03 05:13:09;;;;;;;3.03;2.43;;;;;;;;;;5015407;28;20116;-80
2022/07/03 05:15:34;;;;;;;4.10;2.13;;;;;;;;;;5015674;28;20251;-80
2022/07/03 05:18:00;;;;;;;2.30;2.00;;;;;;;;;;5015666;28;20310;-80
2022/07/03 05:20:27;;;;;;;4.10;2.20;;;;;;;;;;5016444;28;20259;-79
2022/07/03 05:22:52;;;;;;;4.97;2.50;;;;;;;;;;5014462;28;20302;-79
2022/07/03 05:25:18;;;;;;;2.83;2.25;;;;;;;;;;5015313;28;20518;-80
2022/07/03 05:27:43;;;;;;;3.38;2.30;;;;;;;;;;5014572;28;20030;-80
2022/07/03 05:30:09;;;;;;;3.17;2.25;;;;;;;;;;5014313;28;20026;-79
2022/07/03 05:32:34;;;;;;;2.95;2.20;;;;;;;;;;5015715;28;20030;-79
2022/07/03 05:35:00;;;;;;;5.33;2.20;;;;;;;;;;5015690;28;20068;-79
2022/07/03 05:37:26;;;;;;;3.72;2.25;;;;;;;;;;5016113;28;20247;-79
2022/07/03 05:39:51;;;;;;;2.67;2.13;;;;;;;;;;5014771;28;20026;-79
2022/07/03 05:42:16;;;;;;;7.88;2.40;;;;;;;;;;5014474;28;20483;-81
2022/07/03 05:44:41;;;;;;;2.83;2.20;;;;;;;;;;5016010;28;20391;-79
2022/07/03 05:47:07;;;;;;;2.57;2.13;;;;;;;;;;5014031;28;20267;-79
2022/07/03 05:49:32;;;;;;;3.15;2.03;;;;;;;;;;5015157;28;20329;-79
2022/07/03 05:51:57;;;;;;;4.30;2.50;;;;;;;;;;5014222;28;20089;-79
2022/07/03 05:54:22;;;;;;;9.03;2.40;;;;;;;;;;5015131;28;20479;-79
2022/07/03 05:56:48;;;;;;;4.87;2.30;;;;;;;;;;5014958;28;20762;-80
2022/07/03 05:59:13;;;;;;;3.30;2.10;;;;;;;;;;5015940;28;20771;-80
2022/07/03 06:01:38;;;;;;;3.97;2.40;;;;;;;;;;5015965;28;20022;-80
2022/07/03 06:04:04;;;;;;;2.38;2.17;;;;;;;;;;5016092;28;20030;-80
2022/07/03 06:06:29;;;;;;;4.50;2.30;;;;;;;;;;5015446;28;20429;-80
2022/07/03 06:08:54;;;;;;;5.35;2.28;;;;;;;;;;5015482;28;20022;-79
2022/07/03 06:11:19;;;;;;;3.30;2.20;;;;;;;;;;5015760;28;20037;-79
2022/07/03 06:13:45;;;;;;;2.85;2.42;;;;;;;;;;5016190;28;20268;-80
2022/07/03 06:16:10;;;;;;;2.50;2.20;;;;;;;;;;5015742;28;20026;-79
2022/07/03 06:18:35;;;;;;;4.72;2.25;;;;;;;;;;5014731;28;20387;-79
2022/07/03 06:21:00;;;;;;;2.70;2.20;;;;;;;;;;5015302;28;20067;-79
2022/07/03 06:23:26;;;;;;;2.83;2.20;;;;;;;;;;5015346;28;20342;-80
2022/07/03 06:25:51;;;;;;;3.28;1.98;;;;;;;;;;5014382;28;20283;-79
2022/07/03 06:28:16;;;;;;;2.37;1.90;;;;;;;;;;5014851;28;20044;-79
2022/07/03 06:30:41;;;;;;;2.05;1.75;;;;;;;;;;5016735;28;20291;-79
2022/07/03 06:33:07;;;;;;;2.23;2.00;;;;;;;;;;5016387;28;20049;-80
2022/07/03 06:35:32;;;;;;;1.87;1.70;;;;;;;;;;5015739;28;20286;-81
2022/07/03 06:38:02;;;;;;;4.83;1.80;;;;;;;;;;5014278;28;20346;-81
2022/07/03 06:40:27;;;;;;;2.10;1.80;;;;;;;;;;5016755;28;20149;-82
2022/07/03 06:42:52;;;;;;;2.27;1.90;;;;;;;;;;5015945;28;20026;-81
2022/07/03 06:45:17;;;;;;;4.27;1.87;;;;;;;;;;5016759;28;20105;-82
2022/07/03 06:47:42;;;;;;;4.55;1.98;;;;;;;;;;5015504;28;20076;-79
2022/07/03 06:50:08;;;;;;;3.47;2.20;;;;;;;;;;5017125;28;20029;-80
2022/07/03 06:52:33;;;;;;;2.20;2.00;;;;;;;;;;5016779;28;20026;-80
2022/07/03 06:54:58;;;;;;;2.20;1.73;;;;;;;;;;5017685;28;20054;-81
2022/07/03 06:57:24;;;;;;;2.20;1.80;;;;;;;;;;5016418;28;20814;-79
2022/07/03 06:59:49;;;;;;;3.83;2.07;;;;;;;;;;5015574;28;20293;-81
2022/07/03 07:02:14;;;;;;;2.40;2.00;;;;;;;;;;5016392;28;20331;-81
2022/07/03 07:04:40;;;;;;;5.80;2.20;;;;;;;;;;5016352;28;20026;-81
2022/07/03 07:07:05;;;;;;;4.13;2.00;;;;;;;;;;5016481;28;20025;-81
2022/07/03 07:09:30;;;;;;;4.22;2.10;;;;;;;;;;5017168;28;20025;-81
2022/07/03 07:11:55;;;;;;;2.30;1.77;;;;;;;;;;5017023;28;20022;-80
2022/07/03 07:14:21;;;;;;;3.47;1.80;;;;;;;;;;5016491;28;20252;-81
2022/07/03 07:16:46;;;;;;;2.87;1.90;;;;;;;;;;5017491;28;20064;-81
2022/07/03 07:19:11;;;;;;;3.57;2.10;;;;;;;;;;5017602;28;20084;-80
2022/07/03 07:21:37;;;;;;;5.93;1.70;;;;;;;;;;5017098;28;20263;-81
2022/07/03 07:24:03;;;;;;;2.33;1.80;;;;;;;;;;5016456;28;20275;-81
2022/07/03 07:26:28;;;;;;;4.38;1.90;;;;;;;;;;5015817;28;20021;-82
2022/07/03 07:28:53;;;;;;;3.50;2.07;;;;;;;;;;5017199;28;20029;-81
2022/07/03 07:31:18;;;;;;;3.70;1.97;;;;;;;;;;5017409;28;20037;-80
2022/07/03 07:33:43;;;;;;;2.80;2.00;;;;;;;;;;5018093;28;20041;-80
2022/07/03 07:36:09;;;;;;;3.40;2.00;;;;;;;;;;4999720;28;20033;-82
2022/07/03 07:38:34;;;;;;;2.75;1.90;;;;;;;;;;5016154;28;20029;-81
2022/07/03 07:40:59;;;;;;;3.40;1.90;;;;;;;;;;5017001;28;20033;-81
2022/07/03 07:43:24;;;;;;;3.23;2.10;;;;;;;;;;5015094;28;20049;-82
2022/07/03 07:45:50;;;;;;;2.80;1.88;;;;;;;;;;5016572;28;20033;-82
2022/07/03 07:48:18;;;;;;;2.40;1.80;;;;;;;;;;5016237;28;20041;-80
2022/07/03 07:50:43;;;;;;;4.63;1.95;;;;;;;;;;5017844;28;20064;-81
2022/07/03 07:53:08;;;;;;;3.27;2.00;;;;;;;;;;5018983;28;20030;-81
2022/07/03 07:55:33;;;;;;;2.77;2.07;;;;;;;;;;5021157;28;20251;-80
2022/07/03 07:57:58;;;;;;;2.60;2.00;;;;;;;;;;5020552;28;20037;-80
2022/07/03 08:00:24;;;;;;;4.72;2.00;;;;;;;;;;5020002;28;20037;-80
2022/07/03 08:05:39;;;;;;;6.50;1.95;;;;;;;;;;5019727;28;20365;-81
2022/07/03 08:08:15;;;;;;;3.25;1.77;;;;;;;;;;5001710;28;20022;-81
2022/07/03 08:10:46;;;;;;;3.58;1.88;;;;;;;;;;5018956;28;20026;-82
2022/07/03 08:13:12;;;;;;;2.88;1.83;;;;;;;;;;5018709;28;20071;-81
2022/07/03 08:15:39;;;;;;;2.97;1.73;;;;;;;;;;5020023;28;20022;-81
2022/07/03 08:18:07;;;;;;;3.10;2.03;;;;;;;;;;5019808;28;20030;-82
2022/07/03 08:20:32;;;;;;;9.32;1.98;;;;;;;;;;5019800;28;20034;-80
2022/07/03 08:22:58;;;;;;;5.13;2.10;;;;;;;;;;5019267;28;20477;-81
2022/07/03 08:25:24;;;;;;;2.50;2.00;;;;;;;;;;5019571;28;20067;-80
2022/07/03 08:27:49;;;;;;;5.40;1.95;;;;;;;;;;5018560;28;20029;-81
2022/07/03 08:30:17;;;;;;;2.70;1.90;;;;;;;;;;5019549;28;20386;-80
2022/07/03 08:32:44;;;;;;;2.85;1.50;;;;;;;;;;5018411;28;20033;-81
2022/07/03 08:35:09;;;;;;;1.95;1.63;;;;;;;;;;5017817;28;20018;-82
2022/07/03 08:37:35;;;;;;;2.50;1.83;;;;;;;;;;5017721;28;20026;-80
2022/07/03 08:40:01;;;;;;;3.97;1.83;;;;;;;;;;5020271;28;20036;-80
2022/07/03 08:42:28;;;;;;;1.90;1.58;;;;;;;;;;5019007;28;20483;-80
2022/07/03 08:44:54;;;;;;;2.28;1.88;;;;;;;;;;5018535;28;20163;-80
2022/07/03 08:47:21;;;;;;;2.67;1.80;;;;;;;;;;5020357;28;20030;-79
2022/07/03 08:49:46;;;;;;;2.88;2.00;;;;;;;;;;5019869;28;20025;-80
2022/07/03 08:52:12;;;;;;;4.47;1.70;;;;;;;;;;5019064;28;20207;-80
2022/07/03 08:54:38;;;;;;;2.65;1.80;;;;;;;;;;5019998;28;20054;-80
2022/07/03 08:57:07;;;;;;;2.95;2.00;;;;;;;;;;5019095;28;20084;-80
2022/07/03 08:59:37;;;;;;;4.07;1.77;;;;;;;;;;5019648;28;20030;-80
2022/07/03 09:02:04;;;;;;;2.53;2.00;;;;;;;;;;5019329;28;20030;-80
2022/07/03 09:04:30;;;;;;;5.40;1.90;;;;;;;;;;5019072;28;20037;-80
2022/07/03 09:06:58;;;;;;;2.08;1.80;;;;;;;;;;5019712;28;20030;-80
2022/07/03 09:09:23;;;;;;;2.22;1.80;;;;;;;;;;5017322;28;20033;-81
2022/07/03 09:11:50;;;;;;;5.05;1.92;;;;;;;;;;5018891;28;20021;-79
2022/07/03 09:14:15;;;;;;;2.00;1.80;;;;;;;;;;5018187;28;20030;-81
2022/07/03 09:16:40;;;;;;;2.93;1.93;;;;;;;;;;5017586;28;20104;-80
2022/07/03 09:19:05;;;;;;;2.22;1.80;;;;;;;;;;5018081;28;20293;-79
2022/07/03 09:21:38;;;;;;;2.60;1.88;;;;;;;;;;5017822;28;20088;-81
2022/07/03 09:24:05;;;;;;;2.38;1.70;;;;;;;;;;5016611;28;20053;-80
2022/07/03 09:26:31;;;;;;;2.67;1.50;;;;;;;;;;5017899;28;20026;-80
2022/07/03 09:28:56;;;;;;;2.00;1.73;;;;;;;;;;5018968;28;20471;-80
2022/07/03 09:31:26;;;;;;;4.90;1.65;;;;;;;;;;5017614;28;20025;-81
2022/07/03 09:34:03;;;;;;;2.42;1.63;;;;;;;;;;5022432;28;20034;-81
2022/07/03 09:36:49;;;;;;;3.15;1.90;;;;;;;;;;5023519;28;20395;-82
2022/07/03 09:39:14;;;;;;;2.15;1.65;;;;;;;;;;5018507;28;20403;-83
2022/07/03 09:41:57;;;;;;;1.50;1.40;;;;;;;;;;5018308;28;20048;-81
2022/07/03 09:44:41;;;;;;;3.70;1.80;;;;;;;;;;5016697;28;20022;-83
2022/07/03 09:47:13;;;;;;;2.15;1.50;;;;;;;;;;5017205;28;20069;-80
2022/07/03 09:50:16;;;;;;;2.55;1.60;;;;;;;;;;5017968;28;20083;-80
2022/07/03 09:52:46;;;;;;;1.95;1.63;;;;;;;;;;4976602;28;20523;-84
2022/07/03 09:55:11;;;;;;;2.03;1.45;;;;;;;;;;4976601;28;20031;-80
2022/07/03 09:57:41;;;;;;;2.20;1.60;;;;;;;;;;5015130;28;20092;-81
2022/07/03 10:00:21;;;;;;;2.00;1.40;;;;;;;;;;5018032;28;20037;-82
2022/07/03 10:02:59;;;;;;;2.63;1.48;;;;;;;;;;5018741;28;20056;-82
2022/07/03 10:05:33;;;;;;;5.03;1.50;;;;;;;;;;5018646;28;20061;-82
2022/07/03 10:08:09;;;;;;;2.25;1.60;;;;;;;;;;5018473;28;20029;-83
2022/07/03 10:10:55;;;;;;;2.00;1.55;;;;;;;;;;5017839;28;20030;-82
2022/07/03 10:13:28;;;;;;;2.22;1.55;;;;;;;;;;4992857;28;20132;-82
2022/07/03 10:16:02;;;;;;;4.75;1.50;;;;;;;;;;5018124;28;20049;-81
2022/07/03 10:18:48;;;;;;;1.67;1.50;;;;;;;;;;5049906;22;20073;-81
2022/07/03 10:21:14;;;;;;;1.73;1.40;;;;;;;;;;5020782;28;20029;-82
2022/07/03 10:23:47;;;;;;;2.10;1.80;;;;;;;;;;5037868;28;20105;-81
2022/07/03 10:26:13;;;;;;;3.72;1.40;;;;;;;;;;5020070;28;20052;-81
2022/07/03 10:28:39;;;;;;;2.15;1.58;;;;;;;;;;5037821;28;20471;-81
2022/07/03 10:31:07;;;;;;;2.00;1.50;;;;;;;;;;5037724;28;20030;-81
2022/07/03 10:33:36;;;;;;;1.35;1.20;;;;;;;;;;5019139;28;20032;-81
2022/07/03 10:36:02;;;;;;;4.40;1.52;;;;;;;;;;5037049;28;20018;-81
2022/07/03 10:38:39;;;;;;;2.50;1.40;;;;;;;;;;5037420;28;20056;-81
2022/07/03 10:46:51;;;;;;;1.65;1.40;;;;;;;;;;5037564;28;20394;-81
2022/07/03 10:49:16;;;;;;;4.27;1.70;;;;;;;;;;5019481;28;20030;-81
2022/07/03 10:51:44;;;;;;;3.05;1.40;;;;;;;;;;5036832;28;20032;-79
2022/07/03 10:54:37;;;;;;;1.60;1.50;;;;;;;;;;5037548;28;20021;-83
2022/07/03 10:57:23;;;;;;;1.63;1.40;;;;;;;;;;5018808;28;20360;-82
2022/07/03 10:59:49;;;;;;;2.13;1.67;;;;;;;;;;5037127;28;20033;-81
2022/07/03 11:02:37;;;;;;;2.47;1.67;;;;;;;;;;5020154;28;20050;-81
2022/07/03 11:05:03;;;;;;;3.20;1.80;;;;;;;;;;5038993;28;20025;-80
2022/07/03 11:07:32;;;;;;;2.03;1.60;;;;;;;;;;5039209;28;20478;-79
2022/07/03 11:10:23;;;;;;;2.50;1.70;;;;;;;;;;5039802;28;20029;-80
2022/07/03 11:12:59;;;;;;;1.73;1.63;;;;;;;;;;5037228;28;20450;-82
2022/07/03 11:15:29;;;;;;;3.58;1.58;;;;;;;;;;5019394;28;20025;-81
2022/07/03 11:18:32;;;;;;;3.17;1.60;;;;;;;;;;5018929;28;20022;-83
2022/07/03 11:21:15;;;;;;;2.63;1.73;;;;;;;;;;5018648;28;20052;-82
2022/07/03 11:23:54;;;;;;;1.75;1.58;;;;;;;;;;5019195;28;20056;-82
2022/07/03 11:26:22;;;;;;;3.70;1.83;;;;;;;;;;5040604;28;20509;-81
2022/07/03 11:28:49;;;;;;;2.35;1.60;;;;;;;;;;5040347;28;20035;-82
2022/07/03 11:31:19;;;;;;;3.05;1.50;;;;;;;;;;5040066;28;20070;-81
2022/07/03 11:33:51;;;;;;;1.88;1.58;;;;;;;;;;5040234;28;20104;-81
2022/07/03 11:36:17;;;;;;;2.33;1.60;;;;;;;;;;5039984;28;20394;-82
2022/07/03 11:38:45;;;;;;;1.70;1.50;;;;;;;;;;5040140;28;20026;-83
2022/07/03 11:41:13;;;;;;;2.05;1.50;;;;;;;;;;5039628;28;20044;-82
2022/07/03 11:43:52;;;;;;;1.60;1.50;;;;;;;;;;5022453;28;20028;-79
2022/07/03 11:46:24;;;;;;;2.63;1.65;;;;;;;;;;5022552;28;20470;-81
2022/07/03 11:49:07;;;;;;;1.98;1.45;;;;;;;;;;5040150;28;20092;-81
2022/07/03 11:51:33;;;;;;;4.32;1.50;;;;;;;;;;5022732;28;20025;-80
2022/07/03 11:53:58;;;;;;;2.40;1.30;;;;;;;;;;5022766;28;20036;-81
2022/07/03 11:56:33;;;;;;;2.63;1.80;;;;;;;;;;5040338;28;20026;-82
2022/07/03 11:59:00;;;;;;;1.98;1.58;;;;;;;;;;5022630;28;20266;-81
2022/07/03 12:01:25;;;;;;;1.70;1.60;;;;;;;;;;5039754;28;20095;-81
2022/07/03 12:03:52;;;;;;;2.45;1.50;;;;;;;;;;5040307;28;20120;-82
2022/07/03 12:06:18;;;;;;;5.07;1.52;;;;;;;;;;5022123;28;20048;-82
2022/07/03 12:08:46;;;;;;;2.72;1.50;;;;;;;;;;5040034;28;20027;-82
2022/07/03 12:11:13;;;;;;;1.98;1.50;;;;;;;;;;5040414;28;20118;-81
2022/07/03 12:13:41;;;;;;;1.80;1.50;;;;;;;;;;5039887;28;20123;-81
2022/07/03 12:16:12;;;;;;;2.58;1.40;;;;;;;;;;5039404;28;20022;-81
2022/07/03 12:18:56;;;;;;;2.78;1.77;;;;;;;;;;5039052;28;20029;-82
2022/07/03 12:21:22;;;;;;;1.63;1.52;;;;;;;;;;5039952;28;20029;-80
2022/07/03 12:23:53;;;;;;;2.22;1.40;;;;;;;;;;5040422;28;20029;-81
2022/07/03 12:26:32;;;;;;;1.77;1.55;;;;;;;;;;5039923;28;20029;-81
2022/07/03 12:28:59;;;;;;;2.72;1.50;;;;;;;;;;5038687;28;20026;-81
2022/07/03 12:31:26;;;;;;;1.77;1.63;;;;;;;;;;5039493;28;20040;-80
2022/07/03 12:33:52;;;;;;;1.80;1.50;;;;;;;;;;5021662;28;20037;-81
2022/07/03 12:36:17;;;;;;;2.03;1.48;;;;;;;;;;5039034;28;20029;-80
2022/07/03 12:38:47;;;;;;;2.42;1.70;;;;;;;;;;5055469;22;20045;-82
2022/07/03 12:41:12;;;;;;;3.00;1.50;;;;;;;;;;5040118;28;20024;-81
2022/07/03 12:43:44;;;;;;;1.55;1.45;;;;;;;;;;5039761;28;20123;-81
2022/07/03 12:46:31;;;;;;;1.75;1.60;;;;;;;;;;5022145;28;20429;-82
2022/07/03 12:48:58;;;;;;;2.35;1.65;;;;;;;;;;5020448;28;20494;-81
2022/07/03 12:51:40;;;;;;;1.73;1.50;;;;;;;;;;5019035;28;20033;-82
2022/07/03 12:54:11;;;;;;;2.65;1.50;;;;;;;;;;5019350;28;20029;-81
2022/07/03 12:56:36;;;;;;;1.95;1.40;;;;;;;;;;5019398;28;20018;-82
2022/07/03 12:59:16;;;;;;;2.03;1.50;;;;;;;;;;5020225;28;20548;-79
2022/07/03 13:01:43;;;;;;;1.60;1.50;;;;;;;;;;5019686;28;20117;-79
2022/07/03 13:04:14;;;;;;;4.00;1.55;;;;;;;;;;5001438;28;20033;-80
2022/07/03 13:06:40;;;;;;;2.05;1.60;;;;;;;;;;5018790;28;20459;-80
2022/07/03 13:09:06;;;;;;;2.35;1.48;;;;;;;;;;5001570;28;20021;-80
2022/07/03 13:11:40;;;;;;;4.40;1.50;;;;;;;;;;5019177;28;20445;-80
2022/07/03 13:14:10;;;;;;;3.60;1.50;;;;;;;;;;5001351;28;20119;-80
2022/07/03 13:16:46;;;;;;;4.03;1.70;;;;;;;;;;5001075;28;20022;-81
2022/07/03 13:19:16;;;;;;;1.48;1.38;;;;;;;;;;5000714;28;20025;-81
2022/07/03 13:21:43;;;;;;;3.45;1.85;;;;;;;;;;5019127;28;20103;-82
2022/07/03 13:24:09;;;;;;;2.10;1.50;;;;;;;;;;5019111;28;20030;-79
2022/07/03 13:26:34;;;;;;;2.78;1.50;;;;;;;;;;5018633;28;20037;-81
2022/07/03 13:29:03;;;;;;;1.50;1.40;;;;;;;;;;5000586;28;20116;-81
2022/07/03 13:31:28;;;;;;;1.50;1.40;;;;;;;;;;5001274;28;20050;-80
2022/07/03 13:33:55;;;;;;;1.80;1.40;;;;;;;;;;5018679;28;20390;-81
2022/07/03 13:36:21;;;;;;;3.17;1.38;;;;;;;;;;5000046;28;20122;-82
2022/07/03 13:38:46;;;;;;;2.17;1.33;;;;;;;;;;4999576;28;20049;-82
2022/07/03 13:41:14;;;;;;;4.22;1.60;;;;;;;;;;5018755;28;20267;-80
2022/07/03 13:43:40;;;;;;;2.25;1.40;;;;;;;;;;5002841;28;20117;-79
2022/07/03 13:46:05;;;;;;;2.22;1.38;;;;;;;;;;5022007;28;20115;-79
2022/07/03 13:48:31;;;;;;;1.50;1.40;;;;;;;;;;5019807;28;20101;-80
2022/07/03 13:50:56;;;;;;;1.73;1.50;;;;;;;;;;5021587;28;20748;-81
2022/07/03 13:53:21;;;;;;;6.90;1.63;;;;;;;;;;5020664;28;20088;-81
2022/07/03 13:55:46;;;;;;;2.20;1.57;;;;;;;;;;5020865;28;20018;-81
2022/07/03 13:58:12;;;;;;;2.17;1.50;;;;;;;;;;5019745;28;20542;-80
2022/07/03 14:00:37;;;;;;;2.83;1.90;;;;;;;;;;5019780;28;20029;-80
2022/07/03 14:03:03;;;;;;;3.20;1.60;;;;;;;;;;5019739;28;20053;-81
2022/07/03 14:05:28;;;;;;;2.45;1.70;;;;;;;;;;5002676;28;20029;-82
2022/07/03 14:07:54;;;;;;;3.65;1.58;;;;;;;;;;5020289;28;20030;-79
2022/07/03 14:10:21;;;;;;;2.85;1.60;;;;;;;;;;5019337;28;20566;-80
2022/07/03 14:12:47;;;;;;;2.70;1.48;;;;;;;;;;5019474;28;20018;-81
2022/07/03 14:15:14;;;;;;;2.38;1.55;;;;;;;;;;5020537;28;20546;-82
2022/07/03 14:17:39;;;;;;;1.58;1.38;;;;;;;;;;5001656;28;20026;-80
2022/07/03 14:20:05;;;;;;;2.80;1.50;;;;;;;;;;5001976;28;20037;-79
2022/07/03 14:22:30;;;;;;;1.50;1.40;;;;;;;;;;5002592;28;20047;-80
2022/07/03 14:24:55;;;;;;;3.13;1.57;;;;;;;;;;5019424;28;20048;-80
2022/07/03 14:32:49;;;;;;;1.55;1.23;;;;;;;;;;5020861;28;20040;-79
2022/07/03 14:35:14;;;;;;;2.43;1.30;;;;;;;;;;5021290;28;20104;-80
2022/07/03 14:37:40;;;;;;;1.85;1.27;;;;;;;;;;5019958;28;20069;-77
2022/07/03 14:40:05;;;;;;;3.33;1.30;;;;;;;;;;5020471;28;20026;-80
2022/07/03 14:42:31;;;;;;;4.60;1.10;;;;;;;;;;5018588;28;20129;-80
2022/07/03 14:44:56;;;;;;;2.90;1.40;;;;;;;;;;5020433;28;20026;-81
2022/07/03 14:47:21;;;;;;;1.63;1.10;;;;;;;;;;5020556;28;20029;-81
2022/07/03 14:49:47;;;;;;;2.30;1.30;;;;;;;;;;5020003;28;20053;-80
2022/07/03 14:52:12;;;;;;;4.80;2.00;;;;;;;;;;5019159;28;20021;-81
2022/07/03 14:54:40;;;;;;;1.40;1.20;;;;;;;;;;5005751;28;20029;-79
2022/07/03 14:57:25;;;;;;;2.20;1.30;;;;;;;;;;5025775;28;20021;-80
2022/07/03 15:00:03;;;;;;;7.60;1.23;;;;;;;;;;5026825;28;20040;-79
2022/07/03 15:02:44;;;;;;;6.07;1.30;;;;;;;;;;5008927;28;20117;-81
2022/07/03 15:05:11;;;;;;;2.00;1.30;;;;;;;;;;5023718;28;20018;-80
2022/07/03 15:07:40;;;;;;;2.83;1.20;;;;;;;;;;5023111;28;20033;-81